Time;durP1;ratioP1;P1;durP2;ratioP2;P2;SDS_P1;SDS_P2;PMS_P1;PMS_P2;Temp;Humidity;BMP_temperature;BMP_pressure;BME280_temperature;BME280_humidity;BME280_pressure;Samples;Min_cycle;Max_cycle;Signal;HPM_P1;HPM_P2
2022/01/21 00:01:35;;;;;;;;;;;2.60;94.40;;;2.15;100.00;100446.13;5015510;28;19979;-65
2022/01/21 00:04:00;;;;;;;;;;;2.60;94.40;;;2.16;100.00;100443.56;5030573;28;20318;-65
2022/01/21 00:06:26;;;;;;;;;;;2.60;94.50;;;2.21;100.00;100448.59;5047442;28;19922;-65
2022/01/21 00:08:52;;;;;;;;;;;2.60;94.60;;;2.31;100.00;100446.69;5015249;28;20274;-65
2022/01/21 00:11:18;;;;;;;;;;;2.60;94.70;;;2.01;100.00;100400.63;5015587;28;19932;-65
2022/01/21 00:13:44;;;;;;;;;;;2.60;94.70;;;2.36;100.00;100434.69;5013892;28;20341;-65
2022/01/21 00:16:14;;;;;;;;;;;2.70;94.70;;;2.41;100.00;100440.50;5014103;28;19917;-65
2022/01/21 00:18:44;;;;;;;;;;;2.70;94.70;;;2.10;100.00;100391.94;5015343;28;19918;-65
2022/01/21 00:32:07;;;;;;;;;;;2.90;94.20;;;2.46;100.00;100442.09;5014006;28;19958;-65
2022/01/21 00:34:33;;;;;;;;;;;2.90;94.00;;;2.53;100.00;100442.78;5013857;28;19960;-65
2022/01/21 00:36:59;;;;;;;;;;;2.90;94.00;;;2.62;100.00;100440.88;5046004;28;19968;-65
2022/01/21 00:39:27;;;;;;;;;;;3.00;94.00;;;2.56;100.00;100445.25;5013655;28;19968;-65
2022/01/21 00:44:37;;;;;;;;;;;3.00;93.80;;;2.61;100.00;100458.72;5013996;28;19929;-65
2022/01/21 00:47:04;;;;;;;;;;;3.00;93.90;;;2.63;100.00;100462.94;5013337;28;19921;-65
2022/01/21 00:49:30;;;;;;;;;;;3.00;94.00;;;2.66;100.00;100460.28;5014515;28;19917;-65
2022/01/21 00:51:55;;;;;;;;;;;3.00;93.90;;;2.63;100.00;100455.28;5013127;28;19979;-65
2022/01/21 00:54:21;;;;;;;;;;;3.00;93.90;;;2.45;100.00;100417.47;5015058;28;19917;-65
2022/01/21 00:56:47;;;;;;;;;;;3.10;93.90;;;2.40;100.00;100416.72;4996893;28;20255;-65
2022/01/21 00:59:13;;;;;;;;;;;3.10;93.80;;;2.65;100.00;100465.41;5029721;28;19918;-65
2022/01/21 01:01:38;;;;;;;;;;;3.10;93.60;;;2.40;100.00;100437.09;5013196;28;19917;-65
2022/01/21 01:04:04;;;;;;;;;;;3.10;93.50;;;2.60;100.00;100480.81;5012940;28;19918;-65
2022/01/21 01:06:30;;;;;;;;;;;3.10;93.40;;;2.46;100.00;100438.69;5014546;28;19914;-65
2022/01/21 01:08:56;;;;;;;;;;;3.10;93.50;;;2.66;100.00;100482.38;5045419;28;20413;-65
2022/01/21 01:11:31;;;;;;;;;;;3.10;93.50;;;2.60;100.00;100474.88;5014612;28;19925;-65
2022/01/21 01:22:11;;;;;;;;;;;3.10;93.60;;;2.68;100.00;100483.19;5013870;28;19925;-65
2022/01/21 01:29:57;;;;;;;;;;;3.10;93.60;;;2.25;100.00;100425.56;5026826;28;19926;-65
2022/01/21 01:32:24;;;;;;;;;;;3.10;93.70;;;2.73;100.00;100506.00;5014040;28;19921;-65
2022/01/21 01:34:51;;;;;;;;;;;3.20;93.70;;;2.71;100.00;100498.44;5013763;28;20359;-65
2022/01/21 01:38:17;;;;;;;;;;;3.20;93.60;;;2.27;100.00;100417.88;5012667;28;19924;-65
2022/01/21 01:50:54;;;;;;;;;;;3.20;93.80;;;2.48;100.00;100429.28;5013447;28;19924;-65
2022/01/21 01:53:22;;;;;;;;;;;3.20;94.10;;;2.74;100.00;100464.38;5012523;28;20390;-65
2022/01/21 01:55:48;;;;;;;;;;;3.20;94.00;;;2.76;100.00;100471.13;5012652;28;19918;-65
2022/01/21 01:58:14;;;;;;;;;;;3.30;94.10;;;2.72;100.00;100451.66;5012168;28;19921;-65
2022/01/21 02:00:41;;;;;;;;;;;3.30;94.20;;;2.73;100.00;100455.88;5013528;28;19913;-65
2022/01/21 02:03:08;;;;;;;;;;;3.30;94.30;;;2.75;100.00;100469.44;5013317;28;19944;-65
2022/01/21 02:05:33;;;;;;;;;;;3.20;94.30;;;2.78;100.00;100461.72;5013932;28;19924;-65
2022/01/21 02:07:59;;;;;;;;;;;3.30;94.30;;;2.79;100.00;100465.97;5013425;28;19921;-65
2022/01/21 02:10:25;;;;;;;;;;;3.20;94.40;;;2.68;100.00;100447.53;5013430;28;19921;-65
2022/01/21 02:12:52;;;;;;;;;;;3.20;94.40;;;2.83;100.00;100456.53;5028743;28;19918;-65
2022/01/21 02:15:20;;;;;;;;;;;3.20;94.50;;;2.68;100.00;100433.06;4995831;28;20004;-65
2022/01/21 02:23:14;;;;;;;;;;;3.10;94.10;;;2.46;100.00;100472.66;5040181;28;20290;-65
2022/01/21 02:25:40;;;;;;;;;;;3.00;94.20;;;2.28;100.00;100452.66;5013645;28;20343;-65
2022/01/21 02:28:14;;;;;;;;;;;2.90;94.20;;;2.38;100.00;100486.41;5013289;28;19921;-65
2022/01/21 02:30:40;;;;;;;;;;;2.90;94.30;;;2.33;100.00;100496.69;5013582;28;20290;-65
2022/01/21 02:33:05;;;;;;;;;;;2.80;94.20;;;2.32;100.00;100489.91;5028308;28;19913;-65
2022/01/21 02:35:31;;;;;;;;;;;2.80;94.10;;;2.40;100.00;100484.66;5013332;28;19947;-65
2022/01/21 02:37:58;;;;;;;;;;;2.80;94.30;;;2.41;100.00;100483.78;5013187;28;19931;-65
2022/01/21 02:40:24;;;;;;;;;;;2.90;94.40;;;2.11;100.00;100437.75;5012012;28;19928;-65
2022/01/21 02:42:49;;;;;;;;;;;2.90;94.40;;;2.31;100.00;100464.50;5013431;28;19921;-65
2022/01/21 02:45:15;;;;;;;;;;;2.90;94.50;;;2.47;100.00;100492.13;5013093;28;19917;-65
2022/01/21 02:47:43;;;;;;;;;;;2.90;94.60;;;2.57;100.00;100490.22;5013200;28;19917;-65
2022/01/21 02:50:10;;;;;;;;;;;2.90;94.60;;;2.56;100.00;100496.19;5011914;28;20209;-65
2022/01/21 02:52:42;;;;;;;;;;;2.90;94.30;;;2.36;100.00;100458.44;5013155;28;19917;-65
2022/01/21 02:55:11;;;;;;;;;;;3.00;94.40;;;2.43;100.00;100482.91;5012047;28;19917;-65
2022/01/21 02:57:36;;;;;;;;;;;3.00;94.30;;;2.44;100.00;100489.66;5011905;28;20291;-64
2022/01/21 03:00:04;;;;;;;;;;;2.90;94.10;;;2.21;100.00;100446.88;5014150;28;19993;-64
2022/01/21 03:02:30;;;;;;;;;;;2.90;94.10;;;2.13;100.00;100448.75;5048231;28;20342;-64
2022/01/21 03:05:05;;;;;;;;;;;2.90;94.00;;;2.40;100.00;100489.75;5016512;28;19917;-65
2022/01/21 03:07:30;;;;;;;;;;;2.80;94.40;;;2.32;100.00;100495.00;5046082;28;20013;-64
2022/01/21 03:09:56;;;;;;;;;;;2.80;94.10;;;2.26;100.00;100490.03;5031282;28;19925;-64
2022/01/21 03:12:22;;;;;;;;;;;2.70;94.10;;;2.23;100.00;100510.47;5015336;28;19963;-64
2022/01/21 03:14:48;;;;;;;;;;;2.70;94.20;;;2.18;100.00;100509.72;4999037;28;19924;-64
2022/01/21 03:17:14;;;;;;;;;;;2.60;94.20;;;2.29;100.00;100510.38;5014950;28;19948;-64
2022/01/21 03:19:39;;;;;;;;;;;2.60;94.40;;;2.19;100.00;100496.13;5016193;28;20016;-64
2022/01/21 03:22:05;;;;;;;;;;;2.60;94.50;;;2.14;100.00;100511.50;4998401;28;19949;-64
2022/01/21 03:24:31;;;;;;;;;;;2.60;94.40;;;2.13;100.00;100503.91;5048323;28;19921;-64
2022/01/21 03:26:57;;;;;;;;;;;2.50;94.40;;;2.09;100.00;100515.84;5015307;28;19949;-64
2022/01/21 03:29:23;;;;;;;;;;;2.50;94.50;;;2.05;100.00;100495.59;5048459;28;19921;-64
2022/01/21 03:31:48;;;;;;;;;;;2.50;94.60;;;1.74;100.00;100457.16;5015114;28;19913;-64
2022/01/21 03:34:14;;;;;;;;;;;2.50;94.60;;;2.12;100.00;100517.50;5015919;28;19933;-64
2022/01/21 03:36:40;;;;;;;;;;;2.40;94.60;;;1.97;100.00;100510.16;5014972;28;19924;-64
2022/01/21 03:39:06;;;;;;;;;;;2.40;94.60;;;1.54;100.00;100510.94;5030739;28;19922;-64
2022/01/21 03:41:32;;;;;;;;;;;2.40;94.40;;;1.37;100.00;100479.88;5015842;28;20429;-64
2022/01/21 03:43:58;;;;;;;;;;;2.30;93.70;;;1.43;100.00;100474.69;5016150;28;19917;-64
2022/01/21 03:46:23;;;;;;;;;;;2.30;93.70;;;1.87;100.00;100525.59;5031476;28;19924;-64
2022/01/21 03:48:50;;;;;;;;;;;2.40;93.80;;;1.67;100.00;100481.03;5015592;28;20290;-64
2022/01/21 03:51:17;;;;;;;;;;;2.30;93.80;;;2.02;100.00;100524.47;5015533;28;19921;-64
2022/01/21 03:53:44;;;;;;;;;;;2.30;94.10;;;2.05;100.00;100515.94;5030815;28;20286;-64
2022/01/21 03:56:10;;;;;;;;;;;2.40;94.40;;;2.05;100.00;100505.75;5047155;28;19917;-64
2022/01/21 03:58:35;;;;;;;;;;;2.40;94.50;;;2.02;100.00;100506.66;5047547;28;19967;-64
2022/01/21 04:01:01;;;;;;;;;;;2.40;94.30;;;2.05;100.00;100510.84;5030605;28;19917;-64
2022/01/21 04:03:27;;;;;;;;;;;2.40;94.30;;;2.10;100.00;100514.97;5015827;28;20286;-63
2022/01/21 04:05:53;;;;;;;;;;;2.50;94.40;;;2.10;100.00;100519.22;5030610;28;20386;-63
2022/01/21 04:08:20;;;;;;;;;;;2.50;94.10;;;1.99;100.00;100508.41;5047042;28;19921;-64
2022/01/21 04:10:48;;;;;;;;;;;2.50;93.90;;;2.09;100.00;100504.81;5029579;28;19922;-64
2022/01/21 04:13:15;;;;;;;;;;;2.50;93.90;;;2.10;100.00;100516.69;5015083;28;19921;-64
2022/01/21 04:15:42;;;;;;;;;;;2.50;93.90;;;1.97;100.00;100502.53;5014327;28;19918;-64
2022/01/21 04:18:09;;;;;;;;;;;2.40;93.90;;;1.96;100.00;100526.31;5046701;28;20338;-64
2022/01/21 04:20:34;;;;;;;;;;;2.40;93.90;;;1.91;100.00;100522.13;5014237;28;19917;-64
2022/01/21 04:23:00;;;;;;;;;;;2.40;93.90;;;1.58;100.00;100494.75;5013769;28;19924;-64
2022/01/21 04:25:26;;;;;;;;;;;2.30;94.00;;;1.75;100.00;100541.06;5014377;28;19917;-63
2022/01/21 04:27:52;;;;;;;;;;;2.30;93.80;;;1.85;100.00;100554.47;5015287;28;19921;-64
2022/01/21 04:30:17;;;;;;;;;;;2.30;93.50;;;1.79;100.00;100552.06;5014762;28;19992;-63
2022/01/21 04:32:43;;;;;;;;;;;2.20;93.60;;;1.75;100.00;100555.50;5014871;28;19972;-64
2022/01/21 04:35:09;;;;;;;;;;;2.20;93.50;;;1.60;100.00;100512.53;5013370;28;19917;-64
2022/01/21 04:37:37;;;;;;;;;;;2.20;93.70;;;1.81;100.00;100553.69;5015119;28;19940;-64
2022/01/21 04:40:11;;;;;;;;;;;2.20;93.80;;;1.84;100.00;100558.72;5014552;28;20020;-64
2022/01/21 04:48:07;;;;;;;;;;;2.20;94.00;;;1.75;100.00;100533.44;5014511;28;20329;-64
2022/01/21 04:50:40;;;;;;;;;;;2.20;94.20;;;1.89;100.00;100556.13;5046309;28;19914;-63
2022/01/21 04:53:06;;;;;;;;;;;2.30;94.30;;;1.78;100.00;100553.75;4998100;28;20321;-64
2022/01/21 04:55:35;;;;;;;;;;;2.30;94.30;;;1.92;100.00;100556.88;5029773;28;19991;-64
2022/01/21 04:58:01;;;;;;;;;;;2.30;94.40;;;1.86;100.00;100528.16;5012925;28;19963;-65
2022/01/21 05:00:27;;;;;;;;;;;2.30;94.40;;;2.02;100.00;100544.84;5046564;28;19918;-64
2022/01/21 05:02:53;;;;;;;;;;;2.30;94.40;;;2.10;100.00;100570.13;5029670;28;19984;-64
2022/01/21 05:05:18;;;;;;;;;;;2.40;94.30;;;1.86;100.00;100526.47;5014011;28;19918;-64
2022/01/21 05:07:44;;;;;;;;;;;2.40;94.30;;;2.11;100.00;100565.03;5046389;28;19924;-64
2022/01/21 05:10:10;;;;;;;;;;;2.50;94.30;;;2.07;100.00;100565.94;5012321;28;19978;-64
2022/01/21 05:12:36;;;;;;;;;;;2.50;94.20;;;2.10;100.00;100570.13;5029348;28;19963;-64
2022/01/21 05:15:27;;;;;;;;;;;2.50;94.30;;;2.11;100.00;100574.38;5012941;28;19975;-64
2022/01/21 05:17:53;;;;;;;;;;;2.50;94.30;;;1.88;100.00;100539.16;5026438;28;19913;-64
2022/01/21 05:20:19;;;;;;;;;;;2.50;94.10;;;2.12;100.00;100583.69;5013897;28;20264;-64
2022/01/21 05:22:44;;;;;;;;;;;2.50;94.00;;;2.07;100.00;100581.22;5045684;28;20008;-64
2022/01/21 05:25:16;;;;;;;;;;;2.50;94.10;;;2.08;100.00;100576.97;5045829;28;19918;-64
2022/01/21 05:27:46;;;;;;;;;;;2.50;94.20;;;2.06;100.00;100545.63;5044404;28;20388;-64
2022/01/21 05:30:12;;;;;;;;;;;2.60;94.20;;;1.94;100.00;100536.50;5029106;28;19960;-64
2022/01/21 05:32:38;;;;;;;;;;;2.60;94.00;;;2.32;100.00;100591.78;5014031;28;19917;-64
2022/01/21 05:35:05;;;;;;;;;;;2.70;94.00;;;2.11;100.00;100579.47;5013865;28;19918;-64
2022/01/21 05:37:30;;;;;;;;;;;2.60;93.80;;;2.22;100.00;100582.66;4996113;28;19941;-64
2022/01/21 05:39:56;;;;;;;;;;;2.60;93.80;;;2.26;100.00;100579.16;5013988;28;19921;-64
2022/01/21 05:42:23;;;;;;;;;;;2.60;93.90;;;2.21;100.00;100560.59;5013641;28;19940;-64
2022/01/21 05:47:15;;;;;;;;;;;2.60;94.00;;;2.18;100.00;100561.50;5013522;28;19918;-63
2022/01/21 05:49:40;;;;;;;;;;;2.60;94.10;;;2.11;100.00;100561.63;5012401;28;19917;-63
2022/01/21 05:52:10;;;;;;;;;;;2.60;94.00;;;2.13;100.00;100582.81;4995994;28;19940;-64
2022/01/21 05:54:36;;;;;;;;;;;2.60;93.70;;;2.14;100.00;100592.16;5012671;28;19987;-64
2022/01/21 05:57:05;;;;;;;;;;;2.60;93.80;;;1.88;100.00;100556.97;5013873;28;20409;-63
2022/01/21 05:59:31;;;;;;;;;;;2.60;93.70;;;2.20;100.00;100607.28;5044908;28;20358;-64
2022/01/21 06:01:56;;;;;;;;;;;2.60;93.70;;;2.08;100.00;100608.34;5045962;28;19943;-63
2022/01/21 06:04:22;;;;;;;;;;;2.60;93.80;;;2.18;100.00;100620.06;5045419;28;19917;-64
2022/01/21 06:06:48;;;;;;;;;;;2.60;93.80;;;1.85;100.00;100623.19;5012914;28;19917;-64
2022/01/21 06:09:14;;;;;;;;;;;2.50;93.80;;;1.85;100.00;100618.94;5012866;28;20285;-64
2022/01/21 06:11:40;;;;;;;;;;;2.50;93.40;;;1.35;100.00;100537.53;5028760;28;19924;-64
2022/01/21 06:14:06;;;;;;;;;;;2.50;93.60;;;1.98;100.00;100616.19;5013274;28;19924;-65
2022/01/21 06:16:34;;;;;;;;;;;2.50;93.70;;;1.89;100.00;100582.38;5013383;28;19918;-64
2022/01/21 06:19:00;;;;;;;;;;;2.50;94.00;;;2.20;100.00;100633.59;5013206;28;19924;-64
2022/01/21 06:21:25;;;;;;;;;;;2.50;94.20;;;2.18;100.00;100632.78;5013328;28;19921;-64
2022/01/21 06:23:51;;;;;;;;;;;2.50;94.10;;;2.13;100.00;100636.28;5013561;28;19964;-64
2022/01/21 06:26:17;;;;;;;;;;;2.50;94.10;;;2.16;100.00;100648.94;5028507;28;19921;-64
2022/01/21 06:28:43;;;;;;;;;;;2.50;94.50;;;2.18;100.00;100650.59;5028485;28;20378;-64
2022/01/21 06:31:09;;;;;;;;;;;2.50;94.30;;;2.10;100.00;100646.50;5013611;28;19918;-64
2022/01/21 06:33:34;;;;;;;;;;;2.50;94.30;;;1.96;100.00;100612.81;5013507;28;19924;-64
2022/01/21 06:36:00;;;;;;;;;;;2.60;94.40;;;2.25;100.00;100656.41;5016691;28;19917;-64
2022/01/21 06:38:27;;;;;;;;;;;2.60;94.40;;;2.19;100.00;100656.53;5016783;28;20369;-64
2022/01/21 06:40:53;;;;;;;;;;;2.60;94.30;;;1.95;100.00;100611.16;4999789;28;19971;-64
2022/01/21 06:43:19;;;;;;;;;;;2.60;94.30;;;2.23;100.00;100663.25;5032050;28;19917;-64
2022/01/21 06:45:45;;;;;;;;;;;2.60;94.30;;;1.97;100.00;100614.50;5048812;28;19924;-64
2022/01/21 06:48:11;;;;;;;;;;;2.60;94.40;;;2.25;100.00;100664.91;5048477;28;20367;-65
2022/01/21 06:50:38;;;;;;;;;;;2.60;94.40;;;2.28;100.00;100672.50;5017011;28;19921;-64
2022/01/21 06:53:03;;;;;;;;;;;2.60;94.40;;;1.91;100.00;100618.81;5016795;28;19917;-64
2022/01/21 06:55:29;;;;;;;;;;;2.60;94.40;;;2.21;100.00;100662.44;5015503;28;20260;-64
2022/01/21 06:57:55;;;;;;;;;;;2.60;94.30;;;2.27;100.00;100668.25;5016745;28;19918;-64
2022/01/21 07:00:21;;;;;;;;;;;2.70;94.30;;;2.23;100.00;100648.81;5031527;28;20044;-65
2022/01/21 07:02:51;;;;;;;;;;;2.70;94.30;;;2.22;100.00;100653.94;5015605;28;19921;-64
2022/01/21 07:05:17;;;;;;;;;;;2.70;94.30;;;2.26;100.00;100650.47;5048252;28;20020;-65
2022/01/21 07:07:42;;;;;;;;;;;2.70;94.20;;;2.01;100.00;100616.97;5016636;28;19921;-64
2022/01/21 07:10:11;;;;;;;;;;;2.70;94.30;;;1.81;100.00;100589.31;5048351;28;20341;-64
2022/01/21 07:12:36;;;;;;;;;;;2.70;94.40;;;2.07;100.00;100621.94;5016899;28;19925;-65
2022/01/21 07:15:04;;;;;;;;;;;2.70;94.30;;;2.27;100.00;100654.69;5048219;28;19917;-64
2022/01/21 07:17:29;;;;;;;;;;;2.70;94.20;;;2.33;100.00;100664.75;5048006;28;19921;-65
2022/01/21 07:19:55;;;;;;;;;;;2.80;94.30;;;2.39;100.00;100659.53;5016456;28;19924;-64
2022/01/21 07:22:21;;;;;;;;;;;2.80;94.40;;;2.45;100.00;100669.66;5031383;28;19923;-65
2022/01/21 07:24:46;;;;;;;;;;;2.80;94.30;;;2.42;100.00;100673.94;5016248;28;19996;-64
2022/01/21 07:27:12;;;;;;;;;;;2.80;94.30;;;2.21;100.00;100639.53;5015938;28;20337;-65
2022/01/21 07:29:38;;;;;;;;;;;2.80;94.40;;;2.23;100.00;100638.63;5014955;28;20320;-65
2022/01/21 07:32:04;;;;;;;;;;;2.80;94.40;;;2.45;100.00;100668.81;5016355;28;19917;-65
2022/01/21 07:34:30;;;;;;;;;;;2.90;94.40;;;2.46;100.00;100676.41;5014760;28;20024;-65
2022/01/21 07:36:55;;;;;;;;;;;2.80;94.70;;;2.42;100.00;100669.69;5016220;28;20312;-65
2022/01/21 07:39:21;;;;;;;;;;;2.90;94.30;;;2.44;100.00;100680.69;5047480;28;19929;-65
2022/01/21 07:41:47;;;;;;;;;;;2.90;94.20;;;2.47;100.00;100679.81;5031236;28;20393;-65
2022/01/21 07:44:13;;;;;;;;;;;2.90;94.10;;;2.14;100.00;100622.69;5015775;28;20397;-65
2022/01/21 07:46:40;;;;;;;;;;;2.90;94.00;;;2.55;100.00;100676.22;5030681;28;19924;-64
2022/01/21 07:49:06;;;;;;;;;;;3.00;94.00;;;2.53;100.00;100656.75;5048093;28;19924;-65
2022/01/21 07:51:32;;;;;;;;;;;3.00;93.90;;;2.65;100.00;100666.69;5030981;28;19921;-65
2022/01/21 07:53:58;;;;;;;;;;;3.00;93.80;;;2.66;100.00;100678.56;5015888;28;19917;-64
2022/01/21 07:56:23;;;;;;;;;;;3.10;93.90;;;2.62;100.00;100669.31;5014450;28;20298;-64
2022/01/21 07:58:50;;;;;;;;;;;3.10;93.90;;;2.61;100.00;100673.59;5015437;28;19917;-72
2022/01/21 08:01:16;;;;;;;;;;;3.10;93.80;;;2.52;100.00;100655.06;5013607;28;20413;-65
2022/01/21 08:03:42;;;;;;;;;;;3.10;93.70;;;2.65;100.00;100676.88;5012594;28;19917;-78
2022/01/21 08:06:07;;;;;;;;;;;3.20;93.60;;;2.64;100.00;100665.84;5016312;28;20398;-73
2022/01/21 08:08:33;;;;;;;;;;;3.20;93.50;;;2.79;100.00;100689.38;5015006;28;20363;-74
2022/01/21 08:10:59;;;;;;;;;;;3.20;93.30;;;2.76;100.00;100687.72;5015249;28;19917;-73
2022/01/21 08:13:27;;;;;;;;;;;3.20;93.20;;;2.80;100.00;100680.88;5014180;28;19933;-73
2022/01/21 08:15:53;;;;;;;;;;;3.30;93.10;;;2.49;100.00;100625.41;5014087;28;19917;-74
2022/01/21 08:18:19;;;;;;;;;;;3.20;92.90;;;2.71;100.00;100656.41;5013750;28;20391;-74
2022/01/21 08:20:45;;;;;;;;;;;3.30;93.00;;;2.88;100.00;100676.47;5015343;28;19925;-74
2022/01/21 08:23:11;;;;;;;;;;;3.30;93.00;;;2.90;100.00;100680.63;5015174;28;19921;-74
2022/01/21 08:25:37;;;;;;;;;;;3.40;93.00;;;2.63;100.00;100631.09;5013434;28;20444;-74
2022/01/21 08:28:03;;;;;;;;;;;3.40;92.90;;;2.81;100.00;100664.69;4997715;28;19917;-69
2022/01/21 08:30:28;;;;;;;;;;;3.40;92.70;;;2.66;100.00;100643.75;5013779;28;20016;-72
2022/01/21 08:32:54;;;;;;;;;;;3.40;92.80;;;3.01;100.00;100682.97;5013885;28;20275;-74
2022/01/21 08:35:20;;;;;;;;;;;3.40;92.70;;;2.78;100.00;100646.94;5014727;28;19925;-74
2022/01/21 08:37:46;;;;;;;;;;;3.50;92.90;;;3.03;100.00;100684.63;5014863;28;19925;-72
2022/01/21 08:40:12;;;;;;;;;;;3.50;92.70;;;3.02;100.00;100680.41;5013653;28;19925;-74
2022/01/21 08:42:38;;;;;;;;;;;3.50;92.70;;;2.95;100.00;100660.16;5014723;28;19921;-74
2022/01/21 08:45:04;;;;;;;;;;;3.50;92.60;;;3.07;100.00;100690.50;5013313;28;19928;-73
2022/01/21 08:47:30;;;;;;;;;;;3.60;92.40;;;3.07;100.00;100687.94;5013679;28;19932;-76
2022/01/21 08:49:59;;;;;;;;;;;3.70;92.30;;;3.00;100.00;100660.91;5013505;28;19918;-77
2022/01/21 08:52:28;;;;;;;;;;;3.70;92.20;;;3.27;100.00;100698.56;5014646;28;20003;-76
2022/01/21 08:54:53;;;;;;;;;;;3.80;92.10;;;3.29;100.00;100679.00;5014510;28;19917;-77
2022/01/21 08:57:20;;;;;;;;;;;3.80;92.10;;;3.42;100.00;100702.50;5012420;28;19925;-71
2022/01/21 08:59:46;;;;;;;;;;;3.90;92.10;;;3.14;100.00;100658.88;5013266;28;19924;-74
2022/01/21 09:02:12;;;;;;;;;;;3.90;92.00;;;3.51;100.00;100704.84;4997179;28;19925;-73
2022/01/21 09:04:38;;;;;;;;;;;3.90;92.20;;;3.52;100.00;100698.03;5014131;28;19921;-78
2022/01/21 09:07:04;;;;;;;;;;;4.00;92.70;;;3.37;100.00;100689.88;5014386;28;20379;-71
2022/01/21 09:09:29;;;;;;;;;;;4.00;91.80;;;3.48;100.00;100693.88;5013808;28;20371;-72
2022/01/21 09:11:59;;;;;;;;;;;4.10;91.70;;;3.50;100.00;100692.13;4996701;28;19921;-73
2022/01/21 09:14:28;;;;;;;;;;;4.10;91.60;;;3.63;100.00;100698.63;5014267;28;19924;-73
2022/01/21 09:16:56;;;;;;;;;;;4.20;91.40;;;3.41;100.00;100700.81;5014477;28;20371;-74
2022/01/21 09:19:22;;;;;;;;;;;4.20;91.10;;;3.35;100.00;100722.22;4996756;28;19967;-73
2022/01/21 09:21:51;;;;;;;;;;;4.20;90.60;;;3.38;100.00;100721.28;5014079;28;20333;-78
2022/01/21 09:24:20;;;;;;;;;;;4.10;90.20;;;3.62;100.00;100713.13;5014030;28;19921;-65
2022/01/21 09:26:46;;;;;;;;;;;4.10;90.60;;;3.60;100.00;100670.63;4997049;28;20020;-71
2022/01/21 09:29:12;;;;;;;;;;;4.20;90.90;;;3.99;100.00;100715.63;5014273;28;20390;-74
2022/01/21 09:31:38;;;;;;;;;;;4.30;91.00;;;4.27;100.00;100714.97;4996263;28;19929;-74
2022/01/21 09:34:05;;;;;;;;;;;4.60;91.30;;;4.43;100.00;100711.16;5013068;28;19917;-72
2022/01/21 09:36:32;;;;;;;;;;;4.80;91.00;;;4.72;100.00;100718.03;5013643;28;19924;-73
2022/01/21 09:38:58;;;;;;;;;;;5.10;90.60;;;4.22;100.00;100675.03;5013760;28;19925;-73
2022/01/21 09:41:24;;;;;;;;;;;5.30;89.50;;;4.80;100.00;100729.72;4996456;28;19921;-74
2022/01/21 09:43:52;;;;;;;;;;;5.40;87.50;;;4.58;100.00;100736.31;5014236;28;19944;-75
2022/01/21 09:46:22;;;;;;;;;;;5.50;86.00;;;4.35;100.00;100687.50;5013564;28;19932;-66
2022/01/21 09:48:54;;;;;;;;;;;5.40;84.50;;;4.55;100.00;100742.31;5012522;28;20458;-73
2022/01/21 09:51:19;;;;;;;;;;;5.40;85.00;;;4.47;100.00;100746.78;5013060;28;19917;-73
2022/01/21 09:53:45;;;;;;;;;;;5.30;84.80;;;4.46;100.00;100754.50;5012648;28;19924;-68
2022/01/21 09:56:11;;;;;;;;;;;5.20;85.10;;;4.24;100.00;100755.91;5015785;28;19918;-76
2022/01/21 09:58:38;;;;;;;;;;;5.10;85.00;;;4.31;100.00;100755.72;5018643;28;19967;-73
2022/01/21 10:01:06;;;;;;;;;;;5.10;84.70;;;4.07;100.00;100713.75;5002848;28;20318;-76
2022/01/21 10:03:33;;;;;;;;;;;5.00;85.00;;;4.32;100.00;100759.13;5018390;28;19964;-71
2022/01/21 10:05:58;;;;;;;;;;;5.10;85.40;;;4.53;100.00;100750.91;5014506;28;19924;-76
2022/01/21 10:08:24;;;;;;;;;;;5.20;85.10;;;4.59;100.00;100756.72;5017105;28;19921;-73
2022/01/21 10:10:50;;;;;;;;;;;5.20;85.00;;;4.52;100.00;100757.75;4999775;28;19921;-75
2022/01/21 10:13:17;;;;;;;;;;;5.20;84.70;;;4.52;100.00;100755.19;5017756;28;19922;-78
2022/01/21 10:15:43;;;;;;;;;;;5.30;84.10;;;4.49;100.00;100734.81;5016232;28;19917;-70
2022/01/21 10:18:14;;;;;;;;;;;5.30;83.50;;;4.52;100.00;100762.88;5017452;28;20028;-75
2022/01/21 10:21:05;;;;;;;;;;;5.20;83.00;;;4.60;100.00;100757.56;5017498;28;20249;-72
2022/01/21 10:23:33;;;;;;;;;;;5.30;83.30;;;4.28;100.00;100716.66;5017342;28;19918;-72
2022/01/21 10:26:06;;;;;;;;;;;5.30;83.30;;;4.67;100.00;100759.06;5017874;28;20000;-75
2022/01/21 10:28:32;;;;;;;;;;;5.30;83.70;;;4.74;100.00;100752.06;5016179;28;19913;-77
2022/01/21 10:31:08;;;;;;;;;;;5.40;83.60;;;5.10;100.00;100753.66;5016065;28;19924;-72
2022/01/21 10:33:41;;;;;;;;;;;5.50;82.80;;;5.11;96.34;100744.22;5017181;28;19920;-76
2022/01/21 10:36:28;;;;;;;;;;;5.60;82.80;;;4.61;96.26;100659.56;5017917;28;19967;-77
2022/01/21 10:39:09;;;;;;;;;;;5.80;81.90;;;5.23;95.75;100728.53;5016011;28;19929;-73
2022/01/21 10:41:38;;;;;;;;;;;5.90;81.40;;;5.51;94.00;100737.09;5015802;28;20075;-74
2022/01/21 10:44:06;;;;;;;;;;;6.10;81.40;;;5.74;90.19;100742.34;4983776;28;19913;-74
2022/01/21 10:46:32;;;;;;;;;;;6.30;80.70;;;5.71;89.73;100734.75;5016854;28;19941;-71
2022/01/21 10:49:12;;;;;;;;;;;6.50;79.70;;;5.83;89.21;100732.72;4999678;28;19917;-74
2022/01/21 10:51:40;;;;;;;;;;;6.60;78.70;;;5.65;88.27;100727.28;5016861;28;19994;-76
2022/01/21 10:54:17;;;;;;;;;;;6.60;78.00;;;5.61;87.61;100737.63;5016768;28;19917;-71
2022/01/21 10:57:08;;;;;;;;;;;6.60;77.10;;;5.62;90.04;100742.72;5016736;28;19924;-71
2022/01/21 10:59:59;;;;;;;;;;;6.60;77.40;;;5.52;89.42;100730.25;5016504;28;19960;-71
2022/01/21 11:02:52;;;;;;;;;;;6.40;76.30;;;5.51;88.11;100737.09;5015622;28;19918;-77
2022/01/21 11:05:23;;;;;;;;;;;6.40;76.30;;;5.55;88.53;100737.81;5015792;28;19956;-71
2022/01/21 11:07:57;;;;;;;;;;;6.30;76.70;;;5.34;91.49;100735.03;5017769;28;20011;-76
2022/01/21 11:10:31;;;;;;;;;;;6.20;77.10;;;5.07;87.76;100696.59;5016458;28;19921;-79
2022/01/21 11:13:12;;;;;;;;;;;6.10;76.80;;;5.22;91.79;100739.66;5015080;28;19917;-70
2022/01/21 11:15:38;;;;;;;;;;;6.00;77.00;;;5.24;92.73;100732.78;5015370;28;19913;-76
2022/01/21 11:18:06;;;;;;;;;;;5.90;77.50;;;5.00;93.00;100700.22;5017107;28;19963;-74
2022/01/21 11:20:35;;;;;;;;;;;5.90;78.00;;;5.15;94.32;100725.38;5014676;28;19922;-77
2022/01/21 11:23:01;;;;;;;;;;;5.90;78.40;;;4.78;92.45;100672.69;5015478;28;19923;-73
2022/01/21 11:25:45;;;;;;;;;;;5.90;78.50;;;5.17;93.52;100721.88;5016397;28;19950;-75
2022/01/21 11:28:48;;;;;;;;;;;5.80;78.10;;;5.09;95.34;100708.47;5016090;28;19913;-78
2022/01/21 11:31:16;;;;;;;;;;;5.80;78.20;;;5.07;93.83;100719.63;5004864;28;20004;-75
2022/01/21 11:33:41;;;;;;;;;;;5.70;78.50;;;5.03;95.51;100716.31;5014946;28;19924;-72
2022/01/21 11:36:07;;;;;;;;;;;5.70;78.30;;;4.92;95.70;100719.19;5016222;28;20286;-77
2022/01/21 11:38:35;;;;;;;;;;;5.60;78.40;;;4.61;98.64;100672.34;5016187;28;19918;-72
2022/01/21 11:41:01;;;;;;;;;;;5.50;79.10;;;4.68;95.48;100712.19;4998835;28;20378;-72
2022/01/21 11:43:29;;;;;;;;;;;5.50;79.20;;;4.50;98.93;100669.22;4998299;28;19921;-73
2022/01/21 11:49:00;;;;;;;;;;;5.40;79.80;;;4.88;98.55;100709.06;5015829;28;19925;-73
2022/01/21 11:51:33;;;;;;;;;;;5.40;79.80;;;4.73;96.56;100705.22;4984789;28;19967;-71
2022/01/21 11:54:00;;;;;;;;;;;5.50;80.70;;;4.81;99.69;100715.22;5014755;28;19963;-74
2022/01/21 11:56:46;;;;;;;;;;;5.40;80.30;;;4.82;98.49;100717.75;4998270;28;19921;-76
2022/01/21 11:59:26;;;;;;;;;;;5.50;79.90;;;4.76;97.47;100715.38;5014851;28;19925;-79
2022/01/21 12:01:52;;;;;;;;;;;5.50;79.90;;;4.80;96.09;100719.50;5016785;28;19914;-76
2022/01/21 12:04:30;;;;;;;;;;;5.40;78.90;;;4.88;94.26;100704.78;5015608;28;19972;-73
2022/01/21 12:06:59;;;;;;;;;;;5.40;78.80;;;4.77;96.20;100696.59;5015752;28;19917;-72
2022/01/21 12:09:59;;;;;;;;;;;5.40;78.60;;;4.83;97.76;100698.97;5013975;28;19921;-77
2022/01/21 12:12:46;;;;;;;;;;;5.40;79.20;;;4.94;94.63;100686.72;5015443;28;19917;-77
2022/01/21 12:15:42;;;;;;;;;;;5.50;79.60;;;4.81;95.05;100697.34;5011141;28;19913;-78
2022/01/21 12:18:40;;;;;;;;;;;5.50;79.10;;;4.88;97.11;100686.06;5015702;28;19918;-79